sensor_id;sensor_type;location;lat;lon;timestamp;pressure;altitude;pressure_sealevel;temperature;humidity
33286;BME280;19656;50.096;20.014;2023-07-13T00:02:10;98632.10;;;23.96;62.34
33286;BME280;19656;50.096;20.014;2023-07-13T02:05:28;98615.85;;;22.82;72.17
33286;BME280;19656;50.096;20.014;2023-07-13T02:10:31;98598.75;;;22.77;72.18
33286;BME280;19656;50.096;20.014;2023-07-13T02:15:38;98591.45;;;22.77;72.30
33286;BME280;19656;50.096;20.014;2023-07-13T02:20:41;98585.60;;;22.76;72.08
33286;BME280;19656;50.096;20.014;2023-07-13T02:25:45;98584.86;;;22.68;72.59
33286;BME280;19656;50.096;20.014;2023-07-13T02:30:54;98581.80;;;22.65;72.55
33286;BME280;19656;50.096;20.014;2023-07-13T02:36:02;98578.42;;;22.67;72.39
33286;BME280;19656;50.096;20.014;2023-07-13T02:41:08;98589.54;;;22.65;72.30
33286;BME280;19656;50.096;20.014;2023-07-13T02:46:14;98594.04;;;22.61;72.25
33286;BME280;19656;50.096;20.014;2023-07-13T02:51:18;98596.16;;;22.58;72.07
33286;BME280;19656;50.096;20.014;2023-07-13T02:56:25;98608.30;;;22.55;71.93
33286;BME280;19656;50.096;20.014;2023-07-13T03:01:29;98616.94;;;22.51;72.40
33286;BME280;19656;50.096;20.014;2023-07-13T03:06:33;98616.94;;;22.52;72.54
33286;BME280;19656;50.096;20.014;2023-07-13T03:11:36;98610.40;;;22.54;72.65
33286;BME280;19656;50.096;20.014;2023-07-13T03:16:59;98613.55;;;22.52;72.68
33286;BME280;19656;50.096;20.014;2023-07-13T03:22:05;98622.98;;;22.48;72.95
33286;BME280;19656;50.096;20.014;2023-07-13T03:27:10;98630.02;;;22.44;73.24
33286;BME280;19656;50.096;20.014;2023-07-13T03:32:14;98626.21;;;22.44;73.47
33286;BME280;19656;50.096;20.014;2023-07-13T03:37:18;98639.20;;;22.45;73.45
33286;BME280;19656;50.096;20.014;2023-07-13T03:42:21;98643.61;;;22.39;73.53
33286;BME280;19656;50.096;20.014;2023-07-13T03:47:24;98635.72;;;22.38;73.67
33286;BME280;19656;50.096;20.014;2023-07-13T03:52:30;98634.64;;;22.36;73.43
33286;BME280;19656;50.096;20.014;2023-07-13T03:57:33;98619.51;;;22.40;73.61
33286;BME280;19656;50.096;20.014;2023-07-13T04:02:41;98610.66;;;22.47;73.54
33286;BME280;19656;50.096;20.014;2023-07-13T04:07:44;98613.18;;;22.55;73.54
33286;BME280;19656;50.096;20.014;2023-07-13T04:12:48;98620.73;;;22.58;73.48
33286;BME280;19656;50.096;20.014;2023-07-13T04:17:51;98623.54;;;22.60;73.34
33286;BME280;19656;50.096;20.014;2023-07-13T04:22:54;98628.90;;;22.64;73.16
33286;BME280;19656;50.096;20.014;2023-07-13T04:28:06;98638.13;;;22.72;73.36
33286;BME280;19656;50.096;20.014;2023-07-13T04:33:10;98648.68;;;22.83;73.07
33286;BME280;19656;50.096;20.014;2023-07-13T04:38:13;98651.73;;;22.91;72.72
33286;BME280;19656;50.096;20.014;2023-07-13T04:43:18;98662.23;;;23.01;72.12
33286;BME280;19656;50.096;20.014;2023-07-13T04:48:22;98664.11;;;23.03;71.72
33286;BME280;19656;50.096;20.014;2023-07-13T04:53:26;98663.70;;;23.02;71.46
33286;BME280;19656;50.096;20.014;2023-07-13T04:58:29;98658.90;;;23.07;71.49
33286;BME280;19656;50.096;20.014;2023-07-13T05:03:33;98639.90;;;23.18;71.05
33286;BME280;19656;50.096;20.014;2023-07-13T05:08:37;98629.42;;;23.26;71.00
33286;BME280;19656;50.096;20.014;2023-07-13T05:13:40;98620.20;;;23.44;71.31
33286;BME280;19656;50.096;20.014;2023-07-13T05:18:43;98632.02;;;23.59;71.03
33286;BME280;19656;50.096;20.014;2023-07-13T05:23:47;98640.98;;;23.71;71.07
33286;BME280;19656;50.096;20.014;2023-07-13T05:28:50;98641.79;;;23.85;70.94
33286;BME280;19656;50.096;20.014;2023-07-13T05:33:53;98630.00;;;24.03;70.29
33286;BME280;19656;50.096;20.014;2023-07-13T05:38:57;98628.58;;;24.21;69.52
33286;BME280;19656;50.096;20.014;2023-07-13T05:44:00;98624.77;;;24.33;68.95
33286;BME280;19656;50.096;20.014;2023-07-13T05:49:03;98621.39;;;24.41;68.00
33286;BME280;19656;50.096;20.014;2023-07-13T05:54:06;98616.13;;;24.44;67.56
33286;BME280;19656;50.096;20.014;2023-07-13T05:59:10;98615.73;;;24.42;67.19
33286;BME280;19656;50.096;20.014;2023-07-13T06:04:13;98610.73;;;24.44;67.46
33286;BME280;19656;50.096;20.014;2023-07-13T06:09:16;98614.85;;;24.54;67.26
33286;BME280;19656;50.096;20.014;2023-07-13T06:14:19;98617.98;;;24.68;66.69
33286;BME280;19656;50.096;20.014;2023-07-13T06:19:23;98611.50;;;24.75;66.64
33286;BME280;19656;50.096;20.014;2023-07-13T06:24:27;98612.64;;;24.76;66.83
33286;BME280;19656;50.096;20.014;2023-07-13T06:29:37;98608.76;;;24.81;67.16
33286;BME280;19656;50.096;20.014;2023-07-13T06:34:43;98608.09;;;24.87;67.12
33286;BME280;19656;50.096;20.014;2023-07-13T06:39:46;98599.06;;;24.96;66.92
33286;BME280;19656;50.096;20.014;2023-07-13T06:44:49;98607.63;;;25.09;66.81
33286;BME280;19656;50.096;20.014;2023-07-13T06:49:52;98605.42;;;25.19;65.94
33286;BME280;19656;50.096;20.014;2023-07-13T06:54:56;98607.02;;;25.27;65.31
33286;BME280;19656;50.096;20.014;2023-07-13T06:59:59;98613.87;;;25.31;65.11
33286;BME280;19656;50.096;20.014;2023-07-13T07:05:03;98621.06;;;25.35;64.66
33286;BME280;19656;50.096;20.014;2023-07-13T07:10:06;98625.52;;;25.38;64.81
33286;BME280;19656;50.096;20.014;2023-07-13T07:15:10;98630.13;;;25.43;64.52
33286;BME280;19656;50.096;20.014;2023-07-13T07:20:13;98632.15;;;25.46;63.81
33286;BME280;19656;50.096;20.014;2023-07-13T07:25:17;98625.57;;;25.46;63.35
33286;BME280;19656;50.096;20.014;2023-07-13T07:30:20;98623.47;;;25.46;62.85
33286;BME280;19656;50.096;20.014;2023-07-13T07:35:26;98620.51;;;25.54;62.30
33286;BME280;19656;50.096;20.014;2023-07-13T07:40:36;98606.73;;;25.59;61.03
33286;BME280;19656;50.096;20.014;2023-07-13T07:45:44;98600.09;;;25.56;60.82
33286;BME280;19656;50.096;20.014;2023-07-13T07:50:47;98597.11;;;25.56;60.37
33286;BME280;19656;50.096;20.014;2023-07-13T07:55:50;98591.52;;;25.59;60.29
33286;BME280;19656;50.096;20.014;2023-07-13T08:01:06;98594.05;;;25.63;60.18
33286;BME280;19656;50.096;20.014;2023-07-13T08:06:13;98594.88;;;25.76;60.53
33286;BME280;19656;50.096;20.014;2023-07-13T08:11:38;98600.16;;;25.84;60.15
33286;BME280;19656;50.096;20.014;2023-07-13T08:16:46;98598.19;;;25.84;60.28
33286;BME280;19656;50.096;20.014;2023-07-13T08:21:49;98603.77;;;25.93;60.59
33286;BME280;19656;50.096;20.014;2023-07-13T08:26:52;98606.75;;;25.98;60.68
33286;BME280;19656;50.096;20.014;2023-07-13T08:31:57;98604.46;;;26.02;59.49
33286;BME280;19656;50.096;20.014;2023-07-13T08:37:02;98605.04;;;26.10;58.67
33286;BME280;19656;50.096;20.014;2023-07-13T08:47:35;98603.84;;;26.37;58.27
33286;BME280;19656;50.096;20.014;2023-07-13T08:52:43;98599.46;;;26.38;57.04
33286;BME280;19656;50.096;20.014;2023-07-13T09:02:23;98584.09;;;26.46;56.08
33286;BME280;19656;50.096;20.014;2023-07-13T09:18:27;98560.16;;;26.32;55.58
33286;BME280;19656;50.096;20.014;2023-07-13T09:23:35;98560.17;;;26.30;55.65
33286;BME280;19656;50.096;20.014;2023-07-13T09:28:42;98563.70;;;26.34;55.41
33286;BME280;19656;50.096;20.014;2023-07-13T09:33:46;98559.98;;;26.31;55.94
33286;BME280;19656;50.096;20.014;2023-07-13T09:44:11;98564.05;;;26.20;55.87
33286;BME280;19656;50.096;20.014;2023-07-13T09:49:15;98562.58;;;26.14;56.22
33286;BME280;19656;50.096;20.014;2023-07-13T09:54:20;98562.98;;;26.09;56.59
33286;BME280;19656;50.096;20.014;2023-07-13T09:59:36;98565.66;;;26.07;56.11
33286;BME280;19656;50.096;20.014;2023-07-13T10:04:43;98575.84;;;25.99;54.00
33286;BME280;19656;50.096;20.014;2023-07-13T10:09:46;98573.73;;;25.97;53.92
33286;BME280;19656;50.096;20.014;2023-07-13T10:14:52;98572.27;;;25.96;53.73
33286;BME280;19656;50.096;20.014;2023-07-13T10:20:13;98570.99;;;25.93;53.94
33286;BME280;19656;50.096;20.014;2023-07-13T10:25:19;98583.81;;;25.88;54.62
33286;BME280;19656;50.096;20.014;2023-07-13T10:30:27;98591.16;;;25.78;55.95
33286;BME280;19656;50.096;20.014;2023-07-13T10:35:33;98590.85;;;25.53;58.90
33286;BME280;19656;50.096;20.014;2023-07-13T10:41:05;98599.19;;;25.29;60.81
33286;BME280;19656;50.096;20.014;2023-07-13T10:46:15;98607.52;;;25.10;62.03
33286;BME280;19656;50.096;20.014;2023-07-13T10:51:21;98617.83;;;24.96;64.18
33286;BME280;19656;50.096;20.014;2023-07-13T10:56:30;98624.52;;;24.89;65.87
33286;BME280;19656;50.096;20.014;2023-07-13T11:06:53;98640.13;;;24.98;64.98
33286;BME280;19656;50.096;20.014;2023-07-13T11:12:01;98643.17;;;24.97;64.95
33286;BME280;19656;50.096;20.014;2023-07-13T11:22:45;98663.58;;;24.76;66.28
33286;BME280;19656;50.096;20.014;2023-07-13T11:27:52;98661.61;;;24.59;66.85
33286;BME280;19656;50.096;20.014;2023-07-13T11:33:11;98671.45;;;24.52;67.15
33286;BME280;19656;50.096;20.014;2023-07-13T11:38:19;98675.60;;;24.49;67.55
33286;BME280;19656;50.096;20.014;2023-07-13T11:43:23;98729.13;;;24.32;68.41
33286;BME280;19656;50.096;20.014;2023-07-13T11:48:29;98778.45;;;23.61;68.18
33286;BME280;19656;50.096;20.014;2023-07-13T11:53:48;98812.09;;;23.07;69.57
33286;BME280;19656;50.096;20.014;2023-07-13T11:58:54;98824.27;;;22.87;69.52
33286;BME280;19656;50.096;20.014;2023-07-13T12:04:26;98812.07;;;22.60;68.62
33286;BME280;19656;50.096;20.014;2023-07-13T12:09:33;98816.76;;;22.27;68.71
33286;BME280;19656;50.096;20.014;2023-07-13T12:14:40;98821.60;;;21.95;68.57
33286;BME280;19656;50.096;20.014;2023-07-13T12:19:43;98825.54;;;21.80;68.54
33286;BME280;19656;50.096;20.014;2023-07-13T12:24:47;98822.73;;;21.63;69.33
33286;BME280;19656;50.096;20.014;2023-07-13T12:35:22;98839.30;;;21.35;70.35
33286;BME280;19656;50.096;20.014;2023-07-13T12:40:30;98840.48;;;21.24;70.64
33286;BME280;19656;50.096;20.014;2023-07-13T12:45:56;98827.80;;;21.16;70.67
33286;BME280;19656;50.096;20.014;2023-07-13T12:51:01;98822.74;;;21.07;71.41
33286;BME280;19656;50.096;20.014;2023-07-13T12:56:06;98822.85;;;20.99;71.52
33286;BME280;19656;50.096;20.014;2023-07-13T13:01:13;98818.57;;;20.92;71.39
33286;BME280;19656;50.096;20.014;2023-07-13T13:11:22;98816.51;;;20.91;71.62
33286;BME280;19656;50.096;20.014;2023-07-13T13:21:29;98822.91;;;20.95;72.26
33286;BME280;19656;50.096;20.014;2023-07-13T13:26:32;98829.48;;;21.01;72.34
33286;BME280;19656;50.096;20.014;2023-07-13T13:31:36;98824.13;;;21.04;72.36
33286;BME280;19656;50.096;20.014;2023-07-13T13:36:40;98831.54;;;21.03;72.51
33286;BME280;19656;50.096;20.014;2023-07-13T13:41:44;98836.86;;;21.10;72.30
33286;BME280;19656;50.096;20.014;2023-07-13T13:46:51;98840.31;;;21.21;72.19
33286;BME280;19656;50.096;20.014;2023-07-13T13:51:55;98842.80;;;21.30;71.87
33286;BME280;19656;50.096;20.014;2023-07-13T13:56:59;98844.31;;;21.37;71.99
33286;BME280;19656;50.096;20.014;2023-07-13T14:02:24;98841.35;;;21.41;72.03
33286;BME280;19656;50.096;20.014;2023-07-13T14:07:29;98849.32;;;21.39;71.43
33286;BME280;19656;50.096;20.014;2023-07-13T14:12:33;98848.41;;;21.41;71.63
33286;BME280;19656;50.096;20.014;2023-07-13T14:17:37;98851.66;;;21.57;72.12
33286;BME280;19656;50.096;20.014;2023-07-13T14:22:46;98849.28;;;21.74;71.46
33286;BME280;19656;50.096;20.014;2023-07-13T14:27:53;98841.48;;;22.00;71.68
33286;BME280;19656;50.096;20.014;2023-07-13T14:32:59;98840.10;;;22.19;71.24
33286;BME280;19656;50.096;20.014;2023-07-13T14:38:03;98842.54;;;22.23;70.08
33286;BME280;19656;50.096;20.014;2023-07-13T14:43:10;98846.09;;;22.25;69.71
33286;BME280;19656;50.096;20.014;2023-07-13T14:48:17;98847.19;;;22.30;69.56
33286;BME280;19656;50.096;20.014;2023-07-13T14:53:27;98848.06;;;22.41;69.66
33286;BME280;19656;50.096;20.014;2023-07-13T14:58:31;98851.31;;;22.51;69.18
33286;BME280;19656;50.096;20.014;2023-07-13T15:03:35;98852.08;;;22.52;68.65
33286;BME280;19656;50.096;20.014;2023-07-13T15:08:42;98858.02;;;22.49;68.34
33286;BME280;19656;50.096;20.014;2023-07-13T15:13:45;98888.81;;;22.50;68.33
33286;BME280;19656;50.096;20.014;2023-07-13T15:18:48;98902.17;;;22.47;68.24
33286;BME280;19656;50.096;20.014;2023-07-13T15:23:52;98889.11;;;22.41;68.77
33286;BME280;19656;50.096;20.014;2023-07-13T15:28:55;98873.60;;;22.39;68.98
33286;BME280;19656;50.096;20.014;2023-07-13T15:33:59;98869.77;;;22.36;69.03
33286;BME280;19656;50.096;20.014;2023-07-13T15:39:03;98871.08;;;22.40;69.84
33286;BME280;19656;50.096;20.014;2023-07-13T15:44:29;98879.48;;;22.62;70.01
33286;BME280;19656;50.096;20.014;2023-07-13T15:49:35;98880.37;;;22.90;69.44
33286;BME280;19656;50.096;20.014;2023-07-13T15:54:38;98883.75;;;23.07;68.46
33286;BME280;19656;50.096;20.014;2023-07-13T15:59:43;98885.48;;;23.03;68.30
33286;BME280;19656;50.096;20.014;2023-07-13T16:04:47;98887.27;;;22.98;67.96
33286;BME280;19656;50.096;20.014;2023-07-13T16:09:50;98887.07;;;23.07;67.36
33286;BME280;19656;50.096;20.014;2023-07-13T16:14:53;98901.08;;;23.10;66.83
33286;BME280;19656;50.096;20.014;2023-07-13T16:19:57;98913.29;;;23.15;66.41
33286;BME280;19656;50.096;20.014;2023-07-13T16:25:02;98917.77;;;23.19;66.80
33286;BME280;19656;50.096;20.014;2023-07-13T16:30:19;98925.63;;;23.25;66.95
33286;BME280;19656;50.096;20.014;2023-07-13T16:35:26;98933.38;;;23.34;66.79
33286;BME280;19656;50.096;20.014;2023-07-13T16:40:32;98933.31;;;23.38;66.62
33286;BME280;19656;50.096;20.014;2023-07-13T16:45:36;98938.14;;;23.27;66.47
33286;BME280;19656;50.096;20.014;2023-07-13T16:50:42;98938.75;;;23.27;66.43
33286;BME280;19656;50.096;20.014;2023-07-13T16:55:51;98950.67;;;23.30;66.75
33286;BME280;19656;50.096;20.014;2023-07-13T17:01:00;98950.11;;;23.33;66.32
33286;BME280;19656;50.096;20.014;2023-07-13T17:06:33;98950.80;;;23.27;66.34
33286;BME280;19656;50.096;20.014;2023-07-13T17:11:37;98947.27;;;23.21;66.57
33286;BME280;19656;50.096;20.014;2023-07-13T17:16:42;98945.05;;;23.16;66.51
33286;BME280;19656;50.096;20.014;2023-07-13T17:21:47;98941.48;;;23.09;67.08
33286;BME280;19656;50.096;20.014;2023-07-13T17:26:51;98936.70;;;23.02;67.28
33286;BME280;19656;50.096;20.014;2023-07-13T17:31:55;98928.02;;;22.96;67.27
33286;BME280;19656;50.096;20.014;2023-07-13T17:36:58;98920.39;;;22.97;67.32
33286;BME280;19656;50.096;20.014;2023-07-13T17:42:02;98911.05;;;22.96;67.66
33286;BME280;19656;50.096;20.014;2023-07-13T17:47:24;98907.73;;;22.97;68.01
33286;BME280;19656;50.096;20.014;2023-07-13T17:52:28;98919.09;;;23.05;68.01
33286;BME280;19656;50.096;20.014;2023-07-13T17:57:32;98917.84;;;22.93;67.35
33286;BME280;19656;50.096;20.014;2023-07-13T18:02:35;98921.70;;;22.67;67.73
33286;BME280;19656;50.096;20.014;2023-07-13T18:07:40;98919.84;;;22.49;68.15
33286;BME280;19656;50.096;20.014;2023-07-13T18:12:44;98926.77;;;22.31;68.66
33286;BME280;19656;50.096;20.014;2023-07-13T18:17:48;98929.73;;;22.20;69.18
33286;BME280;19656;50.096;20.014;2023-07-13T18:22:53;98934.19;;;22.09;69.67
33286;BME280;19656;50.096;20.014;2023-07-13T18:27:57;98936.54;;;21.98;70.19
33286;BME280;19656;50.096;20.014;2023-07-13T18:33:01;98937.05;;;21.85;70.63
33286;BME280;19656;50.096;20.014;2023-07-13T18:38:18;98940.91;;;21.83;70.81
33286;BME280;19656;50.096;20.014;2023-07-13T18:43:23;98959.44;;;21.77;70.99
33286;BME280;19656;50.096;20.014;2023-07-13T18:48:31;98966.27;;;21.84;71.65
33286;BME280;19656;50.096;20.014;2023-07-13T18:53:43;98962.69;;;21.92;70.58
33286;BME280;19656;50.096;20.014;2023-07-13T18:58:47;98971.05;;;21.75;70.50
33286;BME280;19656;50.096;20.014;2023-07-13T19:03:50;98980.83;;;21.67;70.32
33286;BME280;19656;50.096;20.014;2023-07-13T19:08:54;98999.85;;;21.61;70.21
33286;BME280;19656;50.096;20.014;2023-07-13T19:13:58;99007.60;;;21.57;70.41
33286;BME280;19656;50.096;20.014;2023-07-13T19:19:10;99007.98;;;21.47;71.06
33286;BME280;19656;50.096;20.014;2023-07-13T19:24:19;99016.44;;;21.45;71.01
33286;BME280;19656;50.096;20.014;2023-07-13T19:29:26;99022.77;;;21.48;71.14
33286;BME280;19656;50.096;20.014;2023-07-13T19:34:39;99030.37;;;21.41;71.38
33286;BME280;19656;50.096;20.014;2023-07-13T19:39:43;99031.20;;;21.37;71.72
33286;BME280;19656;50.096;20.014;2023-07-13T19:44:49;99028.73;;;21.38;71.82
33286;BME280;19656;50.096;20.014;2023-07-13T19:49:53;99023.39;;;21.37;71.46
33286;BME280;19656;50.096;20.014;2023-07-13T19:54:57;99026.59;;;21.36;71.61
33286;BME280;19656;50.096;20.014;2023-07-13T20:00:01;99028.58;;;21.34;71.49
33286;BME280;19656;50.096;20.014;2023-07-13T20:05:09;99032.42;;;21.32;70.99
33286;BME280;19656;50.096;20.014;2023-07-13T20:15:25;99031.64;;;21.17;72.08
33286;BME280;19656;50.096;20.014;2023-07-13T20:20:38;99033.56;;;21.02;72.24
33286;BME280;19656;50.096;20.014;2023-07-13T20:25:44;99037.73;;;20.95;72.58
33286;BME280;19656;50.096;20.014;2023-07-13T20:30:48;99042.61;;;20.90;72.95
33286;BME280;19656;50.096;20.014;2023-07-13T20:35:53;99033.35;;;20.87;72.99
33286;BME280;19656;50.096;20.014;2023-07-13T20:40:57;99038.00;;;20.84;73.14
33286;BME280;19656;50.096;20.014;2023-07-13T20:46:01;99050.34;;;20.76;73.48
33286;BME280;19656;50.096;20.014;2023-07-13T20:51:08;99052.16;;;20.64;73.65
33286;BME280;19656;50.096;20.014;2023-07-13T20:56:17;99053.67;;;20.62;73.06
33286;BME280;19656;50.096;20.014;2023-07-13T21:01:30;99058.75;;;20.70;72.89
33286;BME280;19656;50.096;20.014;2023-07-13T21:06:35;99059.43;;;20.72;72.94
33286;BME280;19656;50.096;20.014;2023-07-13T21:11:39;99061.99;;;20.72;72.52
33286;BME280;19656;50.096;20.014;2023-07-13T21:16:43;99049.86;;;20.72;72.48
33286;BME280;19656;50.096;20.014;2023-07-13T21:21:46;99056.17;;;20.69;72.19
33286;BME280;19656;50.096;20.014;2023-07-13T21:26:50;99058.00;;;20.69;72.28
33286;BME280;19656;50.096;20.014;2023-07-13T21:31:54;99062.06;;;20.69;72.22
33286;BME280;19656;50.096;20.014;2023-07-13T21:36:57;99073.02;;;20.68;72.04
33286;BME280;19656;50.096;20.014;2023-07-13T21:42:03;99076.80;;;20.65;72.12
33286;BME280;19656;50.096;20.014;2023-07-13T21:47:09;99076.50;;;20.59;72.33
33286;BME280;19656;50.096;20.014;2023-07-13T21:52:15;99074.94;;;20.51;72.36
33286;BME280;19656;50.096;20.014;2023-07-13T21:57:19;99066.16;;;20.45;72.71
33286;BME280;19656;50.096;20.014;2023-07-13T22:02:22;99074.42;;;20.45;72.63
33286;BME280;19656;50.096;20.014;2023-07-13T22:07:25;99074.75;;;20.46;72.48
33286;BME280;19656;50.096;20.014;2023-07-13T22:12:28;99079.23;;;20.34;72.74
33286;BME280;19656;50.096;20.014;2023-07-13T22:17:31;99079.00;;;20.22;73.03
33286;BME280;19656;50.096;20.014;2023-07-13T22:22:35;99083.77;;;20.10;73.40
33286;BME280;19656;50.096;20.014;2023-07-13T22:27:38;99079.07;;;20.00;73.70
33286;BME280;19656;50.096;20.014;2023-07-13T22:32:42;99077.39;;;19.93;74.08
33286;BME280;19656;50.096;20.014;2023-07-13T22:41:30;99070.14;;;19.88;74.40
33286;BME280;19656;50.096;20.014;2023-07-13T22:46:34;99062.20;;;19.78;74.58
33286;BME280;19656;50.096;20.014;2023-07-13T22:51:38;99058.98;;;19.74;74.74
33286;BME280;19656;50.096;20.014;2023-07-13T22:56:41;99059.65;;;19.76;74.84
33286;BME280;19656;50.096;20.014;2023-07-13T23:01:45;99066.17;;;19.79;74.76
33286;BME280;19656;50.096;20.014;2023-07-13T23:06:49;99060.29;;;19.80;74.85
33286;BME280;19656;50.096;20.014;2023-07-13T23:11:55;99062.28;;;19.72;74.76
33286;BME280;19656;50.096;20.014;2023-07-13T23:16:59;99060.98;;;19.62;75.12
33286;BME280;19656;50.096;20.014;2023-07-13T23:22:16;99065.17;;;19.58;75.24
33286;BME280;19656;50.096;20.014;2023-07-13T23:27:23;99075.49;;;19.54;75.58
33286;BME280;19656;50.096;20.014;2023-07-13T23:32:26;99079.45;;;19.52;75.67
33286;BME280;19656;50.096;20.014;2023-07-13T23:37:30;99076.70;;;19.44;76.03
33286;BME280;19656;50.096;20.014;2023-07-13T23:42:33;99076.58;;;19.40;76.18
33286;BME280;19656;50.096;20.014;2023-07-13T23:47:36;99086.88;;;19.44;76.25
33286;BME280;19656;50.096;20.014;2023-07-13T23:52:41;99088.08;;;19.43;76.34
